sensor_id;sensor_type;location;lat;lon;timestamp;pressure;altitude;pressure_sealevel;temperature;humidity
78444;BME280;67739;52.986;8.894;2023-07-29T00:01:40;100719.56;;;18.60;72.88
78444;BME280;67739;52.986;8.894;2023-07-29T00:04:09;100710.53;;;18.60;73.01
78444;BME280;67739;52.986;8.894;2023-07-29T00:06:35;100705.13;;;18.60;72.96
78444;BME280;67739;52.986;8.894;2023-07-29T00:09:03;100698.91;;;18.58;73.33
78444;BME280;67739;52.986;8.894;2023-07-29T00:11:29;100709.91;;;18.56;73.04
78444;BME280;67739;52.986;8.894;2023-07-29T00:13:55;100704.59;;;18.55;72.77
78444;BME280;67739;52.986;8.894;2023-07-29T00:16:20;100706.44;;;18.54;73.05
78444;BME280;67739;52.986;8.894;2023-07-29T00:18:49;100707.41;;;18.53;73.04
78444;BME280;67739;52.986;8.894;2023-07-29T00:21:14;100704.81;;;18.52;73.25
78444;BME280;67739;52.986;8.894;2023-07-29T00:23:39;100712.13;;;18.51;72.85
78444;BME280;67739;52.986;8.894;2023-07-29T00:26:05;100713.09;;;18.50;72.99
78444;BME280;67739;52.986;8.894;2023-07-29T00:28:30;100709.66;;;18.48;73.00
78444;BME280;67739;52.986;8.894;2023-07-29T00:30:59;100705.34;;;18.46;73.23
78444;BME280;67739;52.986;8.894;2023-07-29T00:33:24;100702.63;;;18.46;72.95
78444;BME280;67739;52.986;8.894;2023-07-29T00:35:49;100711.91;;;18.43;73.16
78444;BME280;67739;52.986;8.894;2023-07-29T00:38:15;100703.88;;;18.42;72.76
78444;BME280;67739;52.986;8.894;2023-07-29T00:40:40;100704.00;;;18.40;73.03
78444;BME280;67739;52.986;8.894;2023-07-29T00:43:06;100700.53;;;18.38;73.23
78444;BME280;67739;52.986;8.894;2023-07-29T00:45:32;100699.78;;;18.36;73.04
78444;BME280;67739;52.986;8.894;2023-07-29T00:47:58;100696.34;;;18.34;72.92
78444;BME280;67739;52.986;8.894;2023-07-29T00:50:24;100701.06;;;18.32;73.07
78444;BME280;67739;52.986;8.894;2023-07-29T00:52:50;100701.19;;;18.30;73.07
78444;BME280;67739;52.986;8.894;2023-07-29T00:55:15;100709.44;;;18.29;73.07
78444;BME280;67739;52.986;8.894;2023-07-29T00:57:41;100697.84;;;18.27;73.38
78444;BME280;67739;52.986;8.894;2023-07-29T01:00:08;100706.22;;;18.24;73.18
78444;BME280;67739;52.986;8.894;2023-07-29T01:02:35;100705.38;;;18.23;73.02
78444;BME280;67739;52.986;8.894;2023-07-29T01:05:01;100710.19;;;18.20;73.07
78444;BME280;67739;52.986;8.894;2023-07-29T01:07:41;100704.88;;;18.18;73.27
78444;BME280;67739;52.986;8.894;2023-07-29T01:10:26;100703.28;;;18.16;73.39
78444;BME280;67739;52.986;8.894;2023-07-29T01:13:10;100707.97;;;18.14;73.35
78444;BME280;67739;52.986;8.894;2023-07-29T01:15:55;100712.66;;;18.12;73.16
78444;BME280;67739;52.986;8.894;2023-07-29T01:18:27;100709.31;;;18.08;73.13
78444;BME280;67739;52.986;8.894;2023-07-29T01:20:54;100702.41;;;18.04;73.37
78444;BME280;67739;52.986;8.894;2023-07-29T01:23:34;100705.41;;;18.01;73.41
78444;BME280;67739;52.986;8.894;2023-07-29T01:26:00;100710.06;;;17.99;73.31
78444;BME280;67739;52.986;8.894;2023-07-29T01:28:26;100703.03;;;17.96;73.41
78444;BME280;67739;52.986;8.894;2023-07-29T01:30:57;100703.28;;;17.93;73.53
78444;BME280;67739;52.986;8.894;2023-07-29T01:33:31;100700.81;;;17.90;73.42
78444;BME280;67739;52.986;8.894;2023-07-29T01:36:03;100699.06;;;17.89;73.49
78444;BME280;67739;52.986;8.894;2023-07-29T01:38:36;100680.34;;;17.86;73.36
78444;BME280;67739;52.986;8.894;2023-07-29T01:41:03;100676.03;;;17.84;73.30
78444;BME280;67739;52.986;8.894;2023-07-29T01:43:30;100678.00;;;17.82;73.69
78444;BME280;67739;52.986;8.894;2023-07-29T01:45:56;100669.22;;;17.78;73.50
78444;BME280;67739;52.986;8.894;2023-07-29T01:48:22;100660.34;;;17.76;73.56
78444;BME280;67739;52.986;8.894;2023-07-29T01:50:47;100657.03;;;17.73;73.50
78444;BME280;67739;52.986;8.894;2023-07-29T01:53:12;100668.00;;;17.71;73.49
78444;BME280;67739;52.986;8.894;2023-07-29T01:55:38;100683.53;;;17.69;73.74
78444;BME280;67739;52.986;8.894;2023-07-29T01:58:04;100682.91;;;17.65;73.76
78444;BME280;67739;52.986;8.894;2023-07-29T02:00:29;100685.75;;;17.64;73.74
78444;BME280;67739;52.986;8.894;2023-07-29T02:02:55;100689.53;;;17.61;73.59
78444;BME280;67739;52.986;8.894;2023-07-29T02:05:23;100693.38;;;17.59;73.75
78444;BME280;67739;52.986;8.894;2023-07-29T02:07:48;100698.03;;;17.57;73.99
78444;BME280;67739;52.986;8.894;2023-07-29T02:10:14;100695.56;;;17.54;74.05
78444;BME280;67739;52.986;8.894;2023-07-29T02:12:39;100691.13;;;17.53;74.07
78444;BME280;67739;52.986;8.894;2023-07-29T02:15:05;100684.19;;;17.49;73.99
78444;BME280;67739;52.986;8.894;2023-07-29T02:17:31;100677.16;;;17.46;73.84
78444;BME280;67739;52.986;8.894;2023-07-29T02:19:58;100676.56;;;17.43;74.03
78444;BME280;67739;52.986;8.894;2023-07-29T02:22:24;100673.97;;;17.41;74.15
78444;BME280;67739;52.986;8.894;2023-07-29T02:24:49;100675.06;;;17.39;74.12
78444;BME280;67739;52.986;8.894;2023-07-29T02:27:15;100667.16;;;17.36;74.04
78444;BME280;67739;52.986;8.894;2023-07-29T02:29:40;100679.00;;;17.35;74.11
78444;BME280;67739;52.986;8.894;2023-07-29T02:32:05;100676.53;;;17.31;74.06
78444;BME280;67739;52.986;8.894;2023-07-29T02:34:31;100674.06;;;17.28;74.24
78444;BME280;67739;52.986;8.894;2023-07-29T02:36:56;100666.91;;;17.27;74.05
78444;BME280;67739;52.986;8.894;2023-07-29T02:39:21;100671.59;;;17.25;74.14
78444;BME280;67739;52.986;8.894;2023-07-29T02:41:48;100669.13;;;17.22;74.22
78444;BME280;67739;52.986;8.894;2023-07-29T02:44:13;100665.66;;;17.20;74.08
78444;BME280;67739;52.986;8.894;2023-07-29T02:46:39;100665.03;;;17.17;74.51
78444;BME280;67739;52.986;8.894;2023-07-29T02:49:07;100659.75;;;17.15;74.32
78444;BME280;67739;52.986;8.894;2023-07-29T02:51:32;100663.56;;;17.13;74.24
78444;BME280;67739;52.986;8.894;2023-07-29T02:53:58;100661.06;;;17.10;74.10
78444;BME280;67739;52.986;8.894;2023-07-29T02:56:23;100663.91;;;17.08;74.25
78444;BME280;67739;52.986;8.894;2023-07-29T02:58:49;100666.72;;;17.07;74.32
78444;BME280;67739;52.986;8.894;2023-07-29T03:01:16;100675.09;;;17.04;74.38
78444;BME280;67739;52.986;8.894;2023-07-29T03:03:41;100670.78;;;17.01;74.40
78444;BME280;67739;52.986;8.894;2023-07-29T03:06:09;100661.91;;;16.99;74.52
78444;BME280;67739;52.986;8.894;2023-07-29T03:08:35;100672.88;;;16.98;74.25
78444;BME280;67739;52.986;8.894;2023-07-29T03:11:13;100666.69;;;16.95;74.54
78444;BME280;67739;52.986;8.894;2023-07-29T03:13:42;100665.06;;;16.93;74.39
78444;BME280;67739;52.986;8.894;2023-07-29T03:16:10;100672.44;;;16.91;74.36
78444;BME280;67739;52.986;8.894;2023-07-29T03:18:36;100672.56;;;16.89;74.61
78444;BME280;67739;52.986;8.894;2023-07-29T03:21:02;100676.41;;;16.87;74.31
78444;BME280;67739;52.986;8.894;2023-07-29T03:23:29;100675.66;;;16.85;74.73
78444;BME280;67739;52.986;8.894;2023-07-29T03:25:56;100682.16;;;16.82;74.52
78444;BME280;67739;52.986;8.894;2023-07-29T03:28:28;100679.56;;;16.81;74.84
78444;BME280;67739;52.986;8.894;2023-07-29T03:30:56;100685.09;;;16.79;74.57
78444;BME280;67739;52.986;8.894;2023-07-29T03:33:22;100688.03;;;16.76;74.62
78444;BME280;67739;52.986;8.894;2023-07-29T03:35:48;100681.75;;;16.76;74.64
78444;BME280;67739;52.986;8.894;2023-07-29T03:38:13;100677.44;;;16.73;74.78
78444;BME280;67739;52.986;8.894;2023-07-29T03:40:39;100669.44;;;16.72;74.71
78444;BME280;67739;52.986;8.894;2023-07-29T03:43:05;100661.41;;;16.70;74.68
78444;BME280;67739;52.986;8.894;2023-07-29T03:45:31;100658.81;;;16.69;74.70
78444;BME280;67739;52.986;8.894;2023-07-29T03:47:57;100664.47;;;16.66;74.56
78444;BME280;67739;52.986;8.894;2023-07-29T03:50:26;100655.47;;;16.65;74.73
78444;BME280;67739;52.986;8.894;2023-07-29T03:52:51;100660.13;;;16.63;74.67
78444;BME280;67739;52.986;8.894;2023-07-29T03:55:16;100660.22;;;16.61;74.94
78444;BME280;67739;52.986;8.894;2023-07-29T03:57:42;100650.38;;;16.60;74.85
78444;BME280;67739;52.986;8.894;2023-07-29T04:00:07;100641.53;;;16.58;74.74
78444;BME280;67739;52.986;8.894;2023-07-29T04:02:34;100634.38;;;16.57;74.82
78444;BME280;67739;52.986;8.894;2023-07-29T04:05:02;100643.47;;;16.56;74.80
78444;BME280;67739;52.986;8.894;2023-07-29T04:07:28;100642.59;;;16.56;75.08
78444;BME280;67739;52.986;8.894;2023-07-29T04:09:53;100649.97;;;16.54;74.77
78444;BME280;67739;52.986;8.894;2023-07-29T04:12:19;100653.56;;;16.54;75.03
78444;BME280;67739;52.986;8.894;2023-07-29T04:14:46;100649.13;;;16.53;74.98
78444;BME280;67739;52.986;8.894;2023-07-29T04:17:11;100651.94;;;16.52;74.82
78444;BME280;67739;52.986;8.894;2023-07-29T04:19:37;100650.19;;;16.51;74.85
78444;BME280;67739;52.986;8.894;2023-07-29T04:22:02;100645.66;;;16.51;75.04
78444;BME280;67739;52.986;8.894;2023-07-29T04:24:27;100652.81;;;16.52;75.25
78444;BME280;67739;52.986;8.894;2023-07-29T04:26:53;100645.66;;;16.51;75.08
78444;BME280;67739;52.986;8.894;2023-07-29T04:29:18;100642.06;;;16.51;75.19
78444;BME280;67739;52.986;8.894;2023-07-29T04:31:43;100657.34;;;16.52;75.41
78444;BME280;67739;52.986;8.894;2023-07-29T04:34:09;100660.91;;;16.52;75.12
78444;BME280;67739;52.986;8.894;2023-07-29T04:36:34;100654.53;;;16.53;75.35
78444;BME280;67739;52.986;8.894;2023-07-29T04:39:00;100656.25;;;16.54;75.91
78444;BME280;67739;52.986;8.894;2023-07-29T04:41:25;100659.63;;;16.58;75.93
78444;BME280;67739;52.986;8.894;2023-07-29T04:43:50;100659.47;;;16.59;76.30
78444;BME280;67739;52.986;8.894;2023-07-29T04:46:16;100649.38;;;16.61;76.48
78444;BME280;67739;52.986;8.894;2023-07-29T04:48:41;100653.84;;;16.63;76.54
78444;BME280;67739;52.986;8.894;2023-07-29T04:51:06;100638.34;;;16.65;76.75
78444;BME280;67739;52.986;8.894;2023-07-29T04:53:32;100642.81;;;16.66;77.22
78444;BME280;67739;52.986;8.894;2023-07-29T04:55:58;100644.41;;;16.68;77.41
78444;BME280;67739;52.986;8.894;2023-07-29T04:58:23;100648.84;;;16.69;77.25
78444;BME280;67739;52.986;8.894;2023-07-29T05:00:49;100638.03;;;16.69;77.67
78444;BME280;67739;52.986;8.894;2023-07-29T05:03:14;100636.81;;;16.73;77.89
78444;BME280;67739;52.986;8.894;2023-07-29T05:05:39;100631.25;;;16.75;77.39
78444;BME280;67739;52.986;8.894;2023-07-29T05:08:05;100629.28;;;16.77;78.07
78444;BME280;67739;52.986;8.894;2023-07-29T05:10:30;100617.38;;;16.79;78.08
78444;BME280;67739;52.986;8.894;2023-07-29T05:12:55;100619.84;;;16.82;78.30
78444;BME280;67739;52.986;8.894;2023-07-29T05:15:21;100607.16;;;16.83;78.16
78444;BME280;67739;52.986;8.894;2023-07-29T05:17:47;100613.34;;;16.85;78.33
78444;BME280;67739;52.986;8.894;2023-07-29T05:20:12;100621.22;;;16.88;78.78
78444;BME280;67739;52.986;8.894;2023-07-29T05:22:38;100622.69;;;16.92;79.05
78444;BME280;67739;52.986;8.894;2023-07-29T05:25:03;100611.63;;;16.95;78.72
78444;BME280;67739;52.986;8.894;2023-07-29T05:27:29;100614.09;;;16.98;78.71
78444;BME280;67739;52.986;8.894;2023-07-29T05:29:54;100608.47;;;17.01;79.12
78444;BME280;67739;52.986;8.894;2023-07-29T05:32:19;100608.19;;;17.04;79.12
78444;BME280;67739;52.986;8.894;2023-07-29T05:34:45;100612.28;;;17.10;79.67
78444;BME280;67739;52.986;8.894;2023-07-29T05:37:10;100609.22;;;17.14;79.62
78444;BME280;67739;52.986;8.894;2023-07-29T05:39:35;100609.72;;;17.19;79.97
78444;BME280;67739;52.986;8.894;2023-07-29T05:42:01;100611.19;;;17.23;80.31
78444;BME280;67739;52.986;8.894;2023-07-29T05:44:29;100597.28;;;17.28;80.51
78444;BME280;67739;52.986;8.894;2023-07-29T05:46:55;100605.03;;;17.32;80.80
78444;BME280;67739;52.986;8.894;2023-07-29T05:49:21;100607.28;;;17.39;81.00
78444;BME280;67739;52.986;8.894;2023-07-29T05:51:46;100609.63;;;17.43;80.98
78444;BME280;67739;52.986;8.894;2023-07-29T05:54:11;100612.94;;;17.47;80.82
78444;BME280;67739;52.986;8.894;2023-07-29T05:56:37;100618.88;;;17.52;80.98
78444;BME280;67739;52.986;8.894;2023-07-29T05:59:02;100622.22;;;17.55;80.96
78444;BME280;67739;52.986;8.894;2023-07-29T06:01:27;100621.97;;;17.58;80.77
78444;BME280;67739;52.986;8.894;2023-07-29T06:03:53;100622.56;;;17.62;80.97
78444;BME280;67739;52.986;8.894;2023-07-29T06:06:18;100621.38;;;17.66;80.89
78444;BME280;67739;52.986;8.894;2023-07-29T06:08:43;100624.72;;;17.70;80.75
78444;BME280;67739;52.986;8.894;2023-07-29T06:11:09;100629.78;;;17.74;80.91
78444;BME280;67739;52.986;8.894;2023-07-29T06:13:34;100631.25;;;17.78;81.11
78444;BME280;67739;52.986;8.894;2023-07-29T06:15:59;100625.56;;;17.81;81.08
78444;BME280;67739;52.986;8.894;2023-07-29T06:18:25;100631.63;;;17.85;80.98
78444;BME280;67739;52.986;8.894;2023-07-29T06:20:50;100629.53;;;17.88;81.04
78444;BME280;67739;52.986;8.894;2023-07-29T06:23:16;100635.53;;;17.92;80.61
78444;BME280;67739;52.986;8.894;2023-07-29T06:25:41;100636.16;;;17.95;80.59
78444;BME280;67739;52.986;8.894;2023-07-29T06:28:08;100646.78;;;17.98;80.58
78444;BME280;67739;52.986;8.894;2023-07-29T06:30:34;100643.69;;;18.03;80.84
78444;BME280;67739;52.986;8.894;2023-07-29T06:32:59;100647.75;;;18.09;81.09
78444;BME280;67739;52.986;8.894;2023-07-29T06:35:24;100651.09;;;18.12;80.96
78444;BME280;67739;52.986;8.894;2023-07-29T06:37:50;100649.97;;;18.15;81.11
78444;BME280;67739;52.986;8.894;2023-07-29T06:40:15;100652.28;;;18.19;80.90
78444;BME280;67739;52.986;8.894;2023-07-29T06:42:40;100647.34;;;18.24;80.85
78444;BME280;67739;52.986;8.894;2023-07-29T06:45:06;100636.25;;;18.27;81.08
78444;BME280;67739;52.986;8.894;2023-07-29T06:47:32;100643.16;;;18.31;80.96
78444;BME280;67739;52.986;8.894;2023-07-29T06:49:57;100644.59;;;18.35;81.10
78444;BME280;67739;52.986;8.894;2023-07-29T06:52:22;100642.38;;;18.41;80.60
78444;BME280;67739;52.986;8.894;2023-07-29T06:54:48;100648.31;;;18.46;80.97
78444;BME280;67739;52.986;8.894;2023-07-29T06:57:13;100641.47;;;18.51;80.98
78444;BME280;67739;52.986;8.894;2023-07-29T06:59:38;100642.84;;;18.57;80.95
78444;BME280;67739;52.986;8.894;2023-07-29T07:02:04;100641.63;;;18.61;80.71
78444;BME280;67739;52.986;8.894;2023-07-29T07:04:29;100643.06;;;18.65;80.82
78444;BME280;67739;52.986;8.894;2023-07-29T07:06:55;100645.41;;;18.69;80.63
78444;BME280;67739;52.986;8.894;2023-07-29T07:09:20;100638.75;;;18.74;80.69
78444;BME280;67739;52.986;8.894;2023-07-29T07:11:45;100647.34;;;18.79;80.83
78444;BME280;67739;52.986;8.894;2023-07-29T07:14:11;100643.38;;;18.83;80.58
78444;BME280;67739;52.986;8.894;2023-07-29T07:16:36;100639.41;;;18.87;80.86
78444;BME280;67739;52.986;8.894;2023-07-29T07:19:02;100641.72;;;18.91;80.71
78444;BME280;67739;52.986;8.894;2023-07-29T07:21:28;100654.94;;;18.96;80.74
78444;BME280;67739;52.986;8.894;2023-07-29T07:23:53;100640.09;;;19.00;80.75
78444;BME280;67739;52.986;8.894;2023-07-29T07:26:18;100644.41;;;19.02;80.67
78444;BME280;67739;52.986;8.894;2023-07-29T07:28:44;100640.41;;;19.06;80.40
78444;BME280;67739;52.986;8.894;2023-07-29T07:31:09;100642.88;;;19.10;80.20
78444;BME280;67739;52.986;8.894;2023-07-29T07:33:34;100654.34;;;19.13;80.01
78444;BME280;67739;52.986;8.894;2023-07-29T07:36:00;100649.53;;;19.17;80.00
78444;BME280;67739;52.986;8.894;2023-07-29T07:38:25;100659.97;;;19.21;80.17
78444;BME280;67739;52.986;8.894;2023-07-29T07:40:54;100657.88;;;19.25;79.90
78444;BME280;67739;52.986;8.894;2023-07-29T07:43:20;100662.19;;;19.27;79.46
78444;BME280;67739;52.986;8.894;2023-07-29T07:45:45;100671.81;;;19.31;79.50
78444;BME280;67739;52.986;8.894;2023-07-29T07:48:11;100671.53;;;19.34;79.22
78444;BME280;67739;52.986;8.894;2023-07-29T07:50:38;100672.00;;;19.39;78.89
78444;BME280;67739;52.986;8.894;2023-07-29T07:53:03;100671.88;;;19.41;78.82
78444;BME280;67739;52.986;8.894;2023-07-29T07:55:29;100671.59;;;19.44;78.86
78444;BME280;67739;52.986;8.894;2023-07-29T07:57:54;100677.66;;;19.48;78.55
78444;BME280;67739;52.986;8.894;2023-07-29T08:00:20;100666.50;;;19.51;78.84
78444;BME280;67739;52.986;8.894;2023-07-29T08:02:46;100671.69;;;19.54;78.47
78444;BME280;67739;52.986;8.894;2023-07-29T08:05:14;100659.56;;;19.58;78.92
78444;BME280;67739;52.986;8.894;2023-07-29T08:07:39;100656.56;;;19.61;78.78
78444;BME280;67739;52.986;8.894;2023-07-29T08:10:05;100650.81;;;19.64;78.74
78444;BME280;67739;52.986;8.894;2023-07-29T08:12:32;100649.56;;;19.68;78.67
78444;BME280;67739;52.986;8.894;2023-07-29T08:14:57;100641.88;;;19.73;78.79
78444;BME280;67739;52.986;8.894;2023-07-29T08:17:22;100644.16;;;19.77;78.93
78444;BME280;67739;52.986;8.894;2023-07-29T08:19:48;100641.16;;;19.81;78.98
78444;BME280;67739;52.986;8.894;2023-07-29T08:22:13;100655.38;;;19.84;78.68
78444;BME280;67739;52.986;8.894;2023-07-29T08:24:38;100647.81;;;19.88;79.06
78444;BME280;67739;52.986;8.894;2023-07-29T08:27:04;100650.97;;;19.93;79.04
78444;BME280;67739;52.986;8.894;2023-07-29T08:29:29;100658.72;;;19.97;78.88
78444;BME280;67739;52.986;8.894;2023-07-29T08:31:55;100657.34;;;20.03;78.80
78444;BME280;67739;52.986;8.894;2023-07-29T08:34:20;100652.19;;;20.09;79.01
78444;BME280;67739;52.986;8.894;2023-07-29T08:36:46;100651.63;;;20.16;78.96
78444;BME280;67739;52.986;8.894;2023-07-29T08:39:11;100659.97;;;20.24;79.32
78444;BME280;67739;52.986;8.894;2023-07-29T08:42:02;100663.88;;;20.31;78.86
78444;BME280;67739;52.986;8.894;2023-07-29T08:44:34;100660.31;;;20.40;79.03
78444;BME280;67739;52.986;8.894;2023-07-29T08:47:00;100660.50;;;20.48;78.67
78444;BME280;67739;52.986;8.894;2023-07-29T08:49:26;100651.75;;;20.54;78.71
78444;BME280;67739;52.986;8.894;2023-07-29T08:51:54;100645.75;;;20.60;78.22
78444;BME280;67739;52.986;8.894;2023-07-29T08:54:21;100653.06;;;20.69;77.96
78444;BME280;67739;52.986;8.894;2023-07-29T08:56:46;100654.91;;;20.78;77.93
78444;BME280;67739;52.986;8.894;2023-07-29T08:59:13;100652.94;;;20.90;77.43
78444;BME280;67739;52.986;8.894;2023-07-29T09:01:38;100650.06;;;21.01;77.59
78444;BME280;67739;52.986;8.894;2023-07-29T09:04:04;100645.31;;;21.13;77.31
78444;BME280;67739;52.986;8.894;2023-07-29T09:06:31;100649.63;;;21.25;77.41
78444;BME280;67739;52.986;8.894;2023-07-29T09:08:58;100650.31;;;21.37;76.80
78444;BME280;67739;52.986;8.894;2023-07-29T09:11:24;100642.84;;;21.48;76.58
78444;BME280;67739;52.986;8.894;2023-07-29T09:13:50;100650.13;;;21.58;76.45
78444;BME280;67739;52.986;8.894;2023-07-29T09:16:15;100643.78;;;21.67;76.25
78444;BME280;67739;52.986;8.894;2023-07-29T09:18:41;100646.34;;;21.78;76.41
78444;BME280;67739;52.986;8.894;2023-07-29T09:21:06;100646.31;;;21.87;75.61
78444;BME280;67739;52.986;8.894;2023-07-29T09:23:42;100641.66;;;21.98;75.57
78444;BME280;67739;52.986;8.894;2023-07-29T09:26:08;100646.94;;;22.09;75.17
78444;BME280;67739;52.986;8.894;2023-07-29T09:28:36;100644.91;;;22.20;75.52
78444;BME280;67739;52.986;8.894;2023-07-29T09:31:02;100642.50;;;22.35;75.18
78444;BME280;67739;52.986;8.894;2023-07-29T09:33:29;100644.72;;;22.49;75.29
78444;BME280;67739;52.986;8.894;2023-07-29T09:35:56;100639.56;;;22.64;75.04
78444;BME280;67739;52.986;8.894;2023-07-29T09:38:28;100629.00;;;22.79;75.00
78444;BME280;67739;52.986;8.894;2023-07-29T09:40:56;100636.63;;;22.93;74.38
78444;BME280;67739;52.986;8.894;2023-07-29T09:43:29;100629.75;;;23.07;74.72
78444;BME280;67739;52.986;8.894;2023-07-29T09:45:54;100637.38;;;23.21;74.76
78444;BME280;67739;52.986;8.894;2023-07-29T09:48:22;100627.75;;;23.35;74.42
78444;BME280;67739;52.986;8.894;2023-07-29T09:50:48;100625.59;;;23.46;74.13
78444;BME280;67739;52.986;8.894;2023-07-29T09:53:14;100633.72;;;23.56;73.79
78444;BME280;67739;52.986;8.894;2023-07-29T09:55:39;100630.69;;;23.67;74.00
78444;BME280;67739;52.986;8.894;2023-07-29T09:58:04;100630.44;;;23.78;73.85
78444;BME280;67739;52.986;8.894;2023-07-29T10:00:33;100625.00;;;23.86;73.31
78444;BME280;67739;52.986;8.894;2023-07-29T10:03:00;100624.00;;;23.95;73.32
78444;BME280;67739;52.986;8.894;2023-07-29T10:05:26;100621.84;;;24.07;73.20
78444;BME280;67739;52.986;8.894;2023-07-29T10:07:54;100624.13;;;24.20;73.13
78444;BME280;67739;52.986;8.894;2023-07-29T10:10:20;100623.84;;;24.31;73.35
78444;BME280;67739;52.986;8.894;2023-07-29T10:12:46;100620.78;;;24.42;73.34
78444;BME280;67739;52.986;8.894;2023-07-29T10:15:12;100619.59;;;24.53;73.03
78444;BME280;67739;52.986;8.894;2023-07-29T10:17:38;100618.28;;;24.65;73.45
78444;BME280;67739;52.986;8.894;2023-07-29T10:20:05;100613.31;;;24.77;73.29
78444;BME280;67739;52.986;8.894;2023-07-29T10:22:39;100610.94;;;24.90;73.49
78444;BME280;67739;52.986;8.894;2023-07-29T10:25:15;100604.97;;;25.02;73.51
78444;BME280;67739;52.986;8.894;2023-07-29T10:30:10;100604.94;;;25.27;72.93
78444;BME280;67739;52.986;8.894;2023-07-29T10:32:36;100611.97;;;25.38;72.80
78444;BME280;67739;52.986;8.894;2023-07-29T10:35:02;100604.22;;;25.49;72.63
78444;BME280;67739;52.986;8.894;2023-07-29T10:37:27;100601.66;;;25.64;72.80
78444;BME280;67739;52.986;8.894;2023-07-29T10:39:54;100606.25;;;25.80;72.95
78444;BME280;67739;52.986;8.894;2023-07-29T10:42:20;100608.09;;;25.95;72.82
78444;BME280;67739;52.986;8.894;2023-07-29T10:44:47;100614.34;;;26.12;72.81
78444;BME280;67739;52.986;8.894;2023-07-29T10:47:16;100613.25;;;26.29;73.21
78444;BME280;67739;52.986;8.894;2023-07-29T10:49:46;100610.25;;;26.47;73.52
78444;BME280;67739;52.986;8.894;2023-07-29T10:54:59;100616.31;;;26.88;73.70
78444;BME280;67739;52.986;8.894;2023-07-29T10:57:35;100604.19;;;27.05;73.73
78444;BME280;67739;52.986;8.894;2023-07-29T11:00:01;100610.41;;;27.22;73.84
78444;BME280;67739;52.986;8.894;2023-07-29T11:02:36;100612.84;;;27.40;73.51
78444;BME280;67739;52.986;8.894;2023-07-29T11:05:16;100609.72;;;27.58;73.52
78444;BME280;67739;52.986;8.894;2023-07-29T11:07:47;100606.59;;;27.75;73.82
78444;BME280;67739;52.986;8.894;2023-07-29T11:10:13;100608.50;;;27.90;73.71
78444;BME280;67739;52.986;8.894;2023-07-29T11:12:49;100609.34;;;28.05;73.84
78444;BME280;67739;52.986;8.894;2023-07-29T11:15:27;100603.84;;;28.20;73.74
78444;BME280;67739;52.986;8.894;2023-07-29T11:20:20;100614.16;;;28.47;73.68
78444;BME280;67739;52.986;8.894;2023-07-29T11:22:47;100606.03;;;28.60;73.81
78444;BME280;67739;52.986;8.894;2023-07-29T11:25:14;100613.59;;;28.73;73.66
78444;BME280;67739;52.986;8.894;2023-07-29T11:27:40;100617.38;;;28.87;73.37
78444;BME280;67739;52.986;8.894;2023-07-29T11:30:10;100616.22;;;28.96;72.60
78444;BME280;67739;52.986;8.894;2023-07-29T11:32:39;100625.03;;;29.06;72.60
78444;BME280;67739;52.986;8.894;2023-07-29T11:35:06;100622.38;;;29.19;72.55
78444;BME280;67739;52.986;8.894;2023-07-29T11:37:33;100627.16;;;29.32;72.55
78444;BME280;67739;52.986;8.894;2023-07-29T11:39:59;100619.19;;;29.43;72.85
78444;BME280;67739;52.986;8.894;2023-07-29T11:42:26;100620.59;;;29.54;72.11
78444;BME280;67739;52.986;8.894;2023-07-29T11:44:51;100626.16;;;29.61;71.68
78444;BME280;67739;52.986;8.894;2023-07-29T11:47:16;100629.63;;;29.69;72.40
78444;BME280;67739;52.986;8.894;2023-07-29T11:49:42;100624.97;;;29.76;72.10
78444;BME280;67739;52.986;8.894;2023-07-29T11:52:08;100622.94;;;29.85;72.24
78444;BME280;67739;52.986;8.894;2023-07-29T11:54:38;100632.09;;;29.92;71.73
78444;BME280;67739;52.986;8.894;2023-07-29T11:57:06;100628.09;;;29.95;69.74
78444;BME280;67739;52.986;8.894;2023-07-29T11:59:33;100612.28;;;29.88;68.06
78444;BME280;67739;52.986;8.894;2023-07-29T12:02:00;100620.34;;;29.83;66.85
78444;BME280;67739;52.986;8.894;2023-07-29T12:04:26;100619.31;;;29.84;67.37
78444;BME280;67739;52.986;8.894;2023-07-29T12:06:52;100623.34;;;29.88;67.29
78444;BME280;67739;52.986;8.894;2023-07-29T12:09:17;100626.38;;;29.94;66.80
78444;BME280;67739;52.986;8.894;2023-07-29T12:11:43;100626.00;;;29.97;66.68
78444;BME280;67739;52.986;8.894;2023-07-29T12:14:09;100622.84;;;30.00;66.46
78444;BME280;67739;52.986;8.894;2023-07-29T12:16:42;100624.75;;;30.06;67.43
78444;BME280;67739;52.986;8.894;2023-07-29T12:19:07;100629.50;;;30.12;66.99
78444;BME280;67739;52.986;8.894;2023-07-29T12:21:33;100638.00;;;30.17;66.92
78444;BME280;67739;52.986;8.894;2023-07-29T12:23:58;100631.00;;;30.21;66.79
78444;BME280;67739;52.986;8.894;2023-07-29T12:26:27;100622.09;;;30.26;67.68
78444;BME280;67739;52.986;8.894;2023-07-29T12:28:53;100625.94;;;30.31;67.91
78444;BME280;67739;52.986;8.894;2023-07-29T12:31:18;100620.84;;;30.35;68.20
78444;BME280;67739;52.986;8.894;2023-07-29T12:33:44;100624.06;;;30.38;68.18
78444;BME280;67739;52.986;8.894;2023-07-29T12:36:09;100626.63;;;30.40;67.99
78444;BME280;67739;52.986;8.894;2023-07-29T12:38:35;100629.59;;;30.38;67.46
78444;BME280;67739;52.986;8.894;2023-07-29T12:41:01;100622.16;;;30.39;67.55
78444;BME280;67739;52.986;8.894;2023-07-29T12:43:26;100627.50;;;30.40;67.61
78444;BME280;67739;52.986;8.894;2023-07-29T12:45:52;100622.59;;;30.42;67.78
78444;BME280;67739;52.986;8.894;2023-07-29T12:48:17;100621.75;;;30.42;67.73
78444;BME280;67739;52.986;8.894;2023-07-29T12:50:43;100624.53;;;30.42;67.27
78444;BME280;67739;52.986;8.894;2023-07-29T12:53:09;100612.78;;;30.40;67.45
78444;BME280;67739;52.986;8.894;2023-07-29T12:55:37;100609.16;;;30.39;67.95